sensor_id;sensor_type;location;lat;lon;timestamp;P1;durP1;ratioP1;P2;durP2;ratioP2
71969;SDS011;59838;52.152;5.436;2023-07-30T00:02:05;4.30;;;0.50;;
71969;SDS011;59838;52.152;5.436;2023-07-30T00:04:31;7.57;;;0.88;;
71969;SDS011;59838;52.152;5.436;2023-07-30T00:06:58;6.45;;;0.80;;
71969;SDS011;59838;52.152;5.436;2023-07-30T00:09:24;4.80;;;0.68;;
71969;SDS011;59838;52.152;5.436;2023-07-30T00:11:51;5.80;;;0.60;;
71969;SDS011;59838;52.152;5.436;2023-07-30T00:14:17;4.77;;;0.50;;
71969;SDS011;59838;52.152;5.436;2023-07-30T00:16:44;2.35;;;0.82;;
71969;SDS011;59838;52.152;5.436;2023-07-30T00:19:11;5.95;;;0.90;;
71969;SDS011;59838;52.152;5.436;2023-07-30T00:21:37;5.25;;;0.73;;
71969;SDS011;59838;52.152;5.436;2023-07-30T00:24:04;3.65;;;0.70;;
71969;SDS011;59838;52.152;5.436;2023-07-30T00:26:31;6.17;;;0.93;;
71969;SDS011;59838;52.152;5.436;2023-07-30T00:28:57;4.00;;;0.52;;
71969;SDS011;59838;52.152;5.436;2023-07-30T00:31:24;3.03;;;0.70;;
71969;SDS011;59838;52.152;5.436;2023-07-30T00:33:50;4.50;;;0.77;;
71969;SDS011;59838;52.152;5.436;2023-07-30T00:36:17;2.67;;;0.85;;
71969;SDS011;59838;52.152;5.436;2023-07-30T00:38:43;5.50;;;0.80;;
71969;SDS011;59838;52.152;5.436;2023-07-30T00:41:09;5.35;;;0.70;;
71969;SDS011;59838;52.152;5.436;2023-07-30T00:43:36;5.25;;;0.98;;
71969;SDS011;59838;52.152;5.436;2023-07-30T00:46:02;5.25;;;0.90;;
71969;SDS011;59838;52.152;5.436;2023-07-30T00:48:29;2.97;;;0.75;;
71969;SDS011;59838;52.152;5.436;2023-07-30T00:50:56;7.10;;;1.63;;
71969;SDS011;59838;52.152;5.436;2023-07-30T00:53:23;5.05;;;0.60;;
71969;SDS011;59838;52.152;5.436;2023-07-30T00:55:52;6.93;;;0.50;;
71969;SDS011;59838;52.152;5.436;2023-07-30T00:58:20;4.18;;;0.93;;
71969;SDS011;59838;52.152;5.436;2023-07-30T01:01:00;2.38;;;0.60;;
71969;SDS011;59838;52.152;5.436;2023-07-30T01:03:27;5.93;;;0.80;;
71969;SDS011;59838;52.152;5.436;2023-07-30T01:05:54;2.92;;;0.68;;
71969;SDS011;59838;52.152;5.436;2023-07-30T01:08:20;4.88;;;0.50;;
71969;SDS011;59838;52.152;5.436;2023-07-30T01:10:47;9.23;;;0.82;;
71969;SDS011;59838;52.152;5.436;2023-07-30T01:13:14;5.78;;;0.80;;
71969;SDS011;59838;52.152;5.436;2023-07-30T01:15:42;4.25;;;0.90;;
71969;SDS011;59838;52.152;5.436;2023-07-30T01:18:08;8.65;;;0.90;;
71969;SDS011;59838;52.152;5.436;2023-07-30T01:20:35;7.38;;;1.00;;
71969;SDS011;59838;52.152;5.436;2023-07-30T01:23:02;5.60;;;0.70;;
71969;SDS011;59838;52.152;5.436;2023-07-30T01:25:29;3.88;;;1.08;;
71969;SDS011;59838;52.152;5.436;2023-07-30T01:28:00;6.60;;;0.53;;
71969;SDS011;59838;52.152;5.436;2023-07-30T01:30:38;5.80;;;0.85;;
71969;SDS011;59838;52.152;5.436;2023-07-30T01:33:09;6.13;;;0.70;;
71969;SDS011;59838;52.152;5.436;2023-07-30T01:35:37;5.07;;;0.82;;
71969;SDS011;59838;52.152;5.436;2023-07-30T01:38:04;6.13;;;0.80;;
71969;SDS011;59838;52.152;5.436;2023-07-30T01:40:32;4.77;;;0.70;;
71969;SDS011;59838;52.152;5.436;2023-07-30T01:42:59;3.47;;;0.77;;
71969;SDS011;59838;52.152;5.436;2023-07-30T01:45:26;7.25;;;0.88;;
71969;SDS011;59838;52.152;5.436;2023-07-30T01:47:52;7.95;;;1.02;;
71969;SDS011;59838;52.152;5.436;2023-07-30T01:50:19;2.70;;;0.55;;
71969;SDS011;59838;52.152;5.436;2023-07-30T01:52:46;8.23;;;0.80;;
71969;SDS011;59838;52.152;5.436;2023-07-30T01:55:12;9.00;;;1.00;;
71969;SDS011;59838;52.152;5.436;2023-07-30T01:57:39;4.60;;;0.88;;
71969;SDS011;59838;52.152;5.436;2023-07-30T02:00:05;8.75;;;0.93;;
71969;SDS011;59838;52.152;5.436;2023-07-30T02:02:32;7.35;;;1.05;;
71969;SDS011;59838;52.152;5.436;2023-07-30T02:04:59;7.07;;;0.83;;
71969;SDS011;59838;52.152;5.436;2023-07-30T02:07:25;8.63;;;1.20;;
71969;SDS011;59838;52.152;5.436;2023-07-30T02:09:52;6.07;;;0.70;;
71969;SDS011;59838;52.152;5.436;2023-07-30T02:12:19;5.72;;;0.80;;
71969;SDS011;59838;52.152;5.436;2023-07-30T02:14:45;7.95;;;1.25;;
71969;SDS011;59838;52.152;5.436;2023-07-30T02:17:12;8.60;;;1.47;;
71969;SDS011;59838;52.152;5.436;2023-07-30T02:19:38;5.78;;;1.10;;
71969;SDS011;59838;52.152;5.436;2023-07-30T02:22:05;9.38;;;1.02;;
71969;SDS011;59838;52.152;5.436;2023-07-30T02:24:31;8.07;;;1.33;;
71969;SDS011;59838;52.152;5.436;2023-07-30T02:26:58;6.45;;;1.30;;
71969;SDS011;59838;52.152;5.436;2023-07-30T02:29:24;13.17;;;1.30;;
71969;SDS011;59838;52.152;5.436;2023-07-30T02:31:51;13.20;;;2.03;;
71969;SDS011;59838;52.152;5.436;2023-07-30T02:34:18;7.05;;;0.88;;
71969;SDS011;59838;52.152;5.436;2023-07-30T02:36:44;10.13;;;1.08;;
71969;SDS011;59838;52.152;5.436;2023-07-30T02:39:11;8.07;;;0.88;;
71969;SDS011;59838;52.152;5.436;2023-07-30T02:41:37;4.60;;;0.67;;
71969;SDS011;59838;52.152;5.436;2023-07-30T02:44:04;9.45;;;1.80;;
71969;SDS011;59838;52.152;5.436;2023-07-30T02:46:30;6.90;;;1.00;;
71969;SDS011;59838;52.152;5.436;2023-07-30T02:48:57;13.98;;;1.17;;
71969;SDS011;59838;52.152;5.436;2023-07-30T02:51:23;8.10;;;1.23;;
71969;SDS011;59838;52.152;5.436;2023-07-30T02:53:51;12.80;;;1.90;;
71969;SDS011;59838;52.152;5.436;2023-07-30T02:56:19;8.40;;;1.38;;
71969;SDS011;59838;52.152;5.436;2023-07-30T02:58:46;6.45;;;1.15;;
71969;SDS011;59838;52.152;5.436;2023-07-30T03:01:12;14.15;;;1.83;;
71969;SDS011;59838;52.152;5.436;2023-07-30T03:03:39;10.30;;;1.30;;
71969;SDS011;59838;52.152;5.436;2023-07-30T03:06:05;10.40;;;1.50;;
71969;SDS011;59838;52.152;5.436;2023-07-30T03:08:32;11.43;;;1.25;;
71969;SDS011;59838;52.152;5.436;2023-07-30T03:10:58;12.82;;;1.23;;
71969;SDS011;59838;52.152;5.436;2023-07-30T03:13:25;6.07;;;1.20;;
71969;SDS011;59838;52.152;5.436;2023-07-30T03:15:52;12.52;;;1.90;;
71969;SDS011;59838;52.152;5.436;2023-07-30T03:18:19;7.27;;;1.17;;
71969;SDS011;59838;52.152;5.436;2023-07-30T03:20:45;9.98;;;1.70;;
71969;SDS011;59838;52.152;5.436;2023-07-30T03:23:12;9.95;;;1.48;;
71969;SDS011;59838;52.152;5.436;2023-07-30T03:25:38;7.65;;;1.45;;
71969;SDS011;59838;52.152;5.436;2023-07-30T03:28:05;12.13;;;1.67;;
71969;SDS011;59838;52.152;5.436;2023-07-30T03:30:32;12.53;;;1.53;;
71969;SDS011;59838;52.152;5.436;2023-07-30T03:32:58;10.25;;;1.63;;
71969;SDS011;59838;52.152;5.436;2023-07-30T03:35:27;10.65;;;1.85;;
71969;SDS011;59838;52.152;5.436;2023-07-30T03:37:54;9.75;;;1.83;;
71969;SDS011;59838;52.152;5.436;2023-07-30T03:40:20;10.90;;;1.55;;
71969;SDS011;59838;52.152;5.436;2023-07-30T03:42:47;12.13;;;1.77;;
71969;SDS011;59838;52.152;5.436;2023-07-30T03:45:13;16.67;;;2.58;;
71969;SDS011;59838;52.152;5.436;2023-07-30T03:47:40;11.75;;;2.03;;
71969;SDS011;59838;52.152;5.436;2023-07-30T03:50:06;12.40;;;1.95;;
71969;SDS011;59838;52.152;5.436;2023-07-30T03:52:33;8.18;;;1.80;;
71969;SDS011;59838;52.152;5.436;2023-07-30T03:54:59;11.63;;;1.80;;
71969;SDS011;59838;52.152;5.436;2023-07-30T03:57:26;13.13;;;2.08;;
71969;SDS011;59838;52.152;5.436;2023-07-30T03:59:52;18.60;;;2.40;;
71969;SDS011;59838;52.152;5.436;2023-07-30T04:02:19;14.73;;;1.80;;
71969;SDS011;59838;52.152;5.436;2023-07-30T04:04:46;13.18;;;1.90;;
71969;SDS011;59838;52.152;5.436;2023-07-30T04:07:16;13.53;;;2.17;;
71969;SDS011;59838;52.152;5.436;2023-07-30T04:09:42;12.93;;;1.90;;
71969;SDS011;59838;52.152;5.436;2023-07-30T04:12:09;11.15;;;1.80;;
71969;SDS011;59838;52.152;5.436;2023-07-30T04:14:35;11.50;;;1.92;;
71969;SDS011;59838;52.152;5.436;2023-07-30T04:17:02;13.05;;;1.90;;
71969;SDS011;59838;52.152;5.436;2023-07-30T04:19:28;13.83;;;2.60;;
71969;SDS011;59838;52.152;5.436;2023-07-30T04:21:55;14.25;;;2.83;;
71969;SDS011;59838;52.152;5.436;2023-07-30T04:24:22;20.02;;;2.20;;
71969;SDS011;59838;52.152;5.436;2023-07-30T04:26:48;15.02;;;2.58;;
71969;SDS011;59838;52.152;5.436;2023-07-30T04:29:15;15.35;;;2.60;;
71969;SDS011;59838;52.152;5.436;2023-07-30T04:31:43;17.73;;;2.60;;
71969;SDS011;59838;52.152;5.436;2023-07-30T04:34:09;14.05;;;2.42;;
71969;SDS011;59838;52.152;5.436;2023-07-30T04:36:36;22.63;;;2.80;;
71969;SDS011;59838;52.152;5.436;2023-07-30T04:39:02;15.02;;;2.60;;
71969;SDS011;59838;52.152;5.436;2023-07-30T04:41:29;12.45;;;2.80;;
71969;SDS011;59838;52.152;5.436;2023-07-30T04:43:55;10.93;;;2.33;;
71969;SDS011;59838;52.152;5.436;2023-07-30T04:46:22;14.63;;;2.95;;
71969;SDS011;59838;52.152;5.436;2023-07-30T04:48:48;18.45;;;2.65;;
71969;SDS011;59838;52.152;5.436;2023-07-30T04:51:15;18.73;;;2.95;;
71969;SDS011;59838;52.152;5.436;2023-07-30T04:53:41;18.92;;;3.15;;
71969;SDS011;59838;52.152;5.436;2023-07-30T04:56:08;20.30;;;3.13;;
71969;SDS011;59838;52.152;5.436;2023-07-30T04:58:34;19.25;;;3.63;;
71969;SDS011;59838;52.152;5.436;2023-07-30T05:01:00;21.35;;;2.72;;
71969;SDS011;59838;52.152;5.436;2023-07-30T05:03:27;19.92;;;2.80;;
71969;SDS011;59838;52.152;5.436;2023-07-30T05:05:54;12.25;;;2.53;;
71969;SDS011;59838;52.152;5.436;2023-07-30T05:08:20;17.83;;;3.10;;
71969;SDS011;59838;52.152;5.436;2023-07-30T05:10:46;19.98;;;2.90;;
71969;SDS011;59838;52.152;5.436;2023-07-30T05:13:13;9.20;;;2.03;;
71969;SDS011;59838;52.152;5.436;2023-07-30T05:15:39;15.73;;;2.40;;
71969;SDS011;59838;52.152;5.436;2023-07-30T05:18:06;16.55;;;2.55;;
71969;SDS011;59838;52.152;5.436;2023-07-30T05:20:33;24.17;;;3.93;;
71969;SDS011;59838;52.152;5.436;2023-07-30T05:22:59;18.63;;;3.25;;
71969;SDS011;59838;52.152;5.436;2023-07-30T05:25:26;15.15;;;2.78;;
71969;SDS011;59838;52.152;5.436;2023-07-30T05:27:53;14.93;;;2.55;;
71969;SDS011;59838;52.152;5.436;2023-07-30T05:30:19;18.95;;;3.15;;
71969;SDS011;59838;52.152;5.436;2023-07-30T05:32:46;17.97;;;3.00;;
71969;SDS011;59838;52.152;5.436;2023-07-30T05:35:12;22.08;;;4.43;;
71969;SDS011;59838;52.152;5.436;2023-07-30T05:37:39;21.35;;;4.53;;
71969;SDS011;59838;52.152;5.436;2023-07-30T05:40:05;15.40;;;3.65;;
71969;SDS011;59838;52.152;5.436;2023-07-30T05:42:33;16.25;;;3.83;;
71969;SDS011;59838;52.152;5.436;2023-07-30T05:44:59;18.40;;;3.80;;
71969;SDS011;59838;52.152;5.436;2023-07-30T05:47:26;15.70;;;3.67;;
71969;SDS011;59838;52.152;5.436;2023-07-30T05:49:52;12.80;;;2.90;;
71969;SDS011;59838;52.152;5.436;2023-07-30T05:52:19;18.15;;;3.78;;
71969;SDS011;59838;52.152;5.436;2023-07-30T05:54:46;14.90;;;3.25;;
71969;SDS011;59838;52.152;5.436;2023-07-30T05:57:13;18.70;;;3.40;;
71969;SDS011;59838;52.152;5.436;2023-07-30T05:59:39;17.08;;;3.58;;
71969;SDS011;59838;52.152;5.436;2023-07-30T06:02:06;18.80;;;4.00;;
71969;SDS011;59838;52.152;5.436;2023-07-30T06:04:33;13.82;;;3.60;;
71969;SDS011;59838;52.152;5.436;2023-07-30T06:07:02;13.23;;;3.53;;
71969;SDS011;59838;52.152;5.436;2023-07-30T06:09:29;17.77;;;3.87;;
71969;SDS011;59838;52.152;5.436;2023-07-30T06:11:56;11.07;;;3.95;;
71969;SDS011;59838;52.152;5.436;2023-07-30T06:14:26;16.17;;;4.20;;
71969;SDS011;59838;52.152;5.436;2023-07-30T06:16:53;14.65;;;3.92;;
71969;SDS011;59838;52.152;5.436;2023-07-30T06:19:20;18.00;;;4.03;;
71969;SDS011;59838;52.152;5.436;2023-07-30T06:21:47;8.47;;;3.30;;
71969;SDS011;59838;52.152;5.436;2023-07-30T06:24:13;14.10;;;4.20;;
71969;SDS011;59838;52.152;5.436;2023-07-30T06:26:39;17.98;;;4.07;;
71969;SDS011;59838;52.152;5.436;2023-07-30T06:29:06;14.57;;;4.22;;
71969;SDS011;59838;52.152;5.436;2023-07-30T06:31:32;15.25;;;4.72;;
71969;SDS011;59838;52.152;5.436;2023-07-30T06:33:59;16.17;;;4.67;;
71969;SDS011;59838;52.152;5.436;2023-07-30T06:36:26;13.60;;;3.92;;
71969;SDS011;59838;52.152;5.436;2023-07-30T06:38:52;15.27;;;4.68;;
71969;SDS011;59838;52.152;5.436;2023-07-30T06:41:19;13.18;;;3.78;;
71969;SDS011;59838;52.152;5.436;2023-07-30T06:43:45;13.95;;;5.05;;
71969;SDS011;59838;52.152;5.436;2023-07-30T06:46:12;17.03;;;4.43;;
71969;SDS011;59838;52.152;5.436;2023-07-30T06:48:38;11.63;;;3.80;;
71969;SDS011;59838;52.152;5.436;2023-07-30T06:51:05;19.48;;;4.00;;
71969;SDS011;59838;52.152;5.436;2023-07-30T06:53:33;17.92;;;4.43;;
71969;SDS011;59838;52.152;5.436;2023-07-30T06:56:00;23.25;;;4.00;;
71969;SDS011;59838;52.152;5.436;2023-07-30T06:58:26;18.83;;;4.37;;
71969;SDS011;59838;52.152;5.436;2023-07-30T07:00:53;12.32;;;3.78;;
71969;SDS011;59838;52.152;5.436;2023-07-30T07:03:19;14.70;;;4.05;;
71969;SDS011;59838;52.152;5.436;2023-07-30T07:05:52;13.82;;;3.45;;
71969;SDS011;59838;52.152;5.436;2023-07-30T07:08:22;19.23;;;3.58;;
71969;SDS011;59838;52.152;5.436;2023-07-30T07:10:49;15.60;;;3.40;;
71969;SDS011;59838;52.152;5.436;2023-07-30T07:13:16;16.27;;;4.10;;
71969;SDS011;59838;52.152;5.436;2023-07-30T07:15:42;15.27;;;4.10;;
71969;SDS011;59838;52.152;5.436;2023-07-30T07:18:09;13.82;;;3.45;;
71969;SDS011;59838;52.152;5.436;2023-07-30T07:20:37;14.73;;;3.22;;
71969;SDS011;59838;52.152;5.436;2023-07-30T07:23:04;12.90;;;3.20;;
71969;SDS011;59838;52.152;5.436;2023-07-30T07:25:30;10.75;;;2.83;;
71969;SDS011;59838;52.152;5.436;2023-07-30T07:28:00;18.23;;;3.38;;
71969;SDS011;59838;52.152;5.436;2023-07-30T07:30:26;10.40;;;2.90;;
71969;SDS011;59838;52.152;5.436;2023-07-30T07:32:52;10.85;;;2.80;;
71969;SDS011;59838;52.152;5.436;2023-07-30T07:35:19;11.83;;;2.87;;
71969;SDS011;59838;52.152;5.436;2023-07-30T07:37:49;23.75;;;3.30;;
71969;SDS011;59838;52.152;5.436;2023-07-30T07:40:15;14.88;;;2.58;;
71969;SDS011;59838;52.152;5.436;2023-07-30T07:42:42;16.08;;;2.35;;
71969;SDS011;59838;52.152;5.436;2023-07-30T07:45:09;8.55;;;2.10;;
71969;SDS011;59838;52.152;5.436;2023-07-30T07:47:35;14.23;;;2.73;;
71969;SDS011;59838;52.152;5.436;2023-07-30T07:50:02;13.38;;;2.47;;
71969;SDS011;59838;52.152;5.436;2023-07-30T07:52:29;9.93;;;2.67;;
71969;SDS011;59838;52.152;5.436;2023-07-30T07:54:55;11.43;;;2.33;;
71969;SDS011;59838;52.152;5.436;2023-07-30T07:57:22;15.95;;;2.15;;
71969;SDS011;59838;52.152;5.436;2023-07-30T07:59:48;10.87;;;1.90;;
71969;SDS011;59838;52.152;5.436;2023-07-30T08:02:15;15.20;;;2.42;;
71969;SDS011;59838;52.152;5.436;2023-07-30T08:04:42;17.23;;;2.38;;
71969;SDS011;59838;52.152;5.436;2023-07-30T08:07:08;13.10;;;2.78;;
71969;SDS011;59838;52.152;5.436;2023-07-30T08:09:35;12.23;;;2.30;;
71969;SDS011;59838;52.152;5.436;2023-07-30T08:12:02;9.57;;;1.53;;
71969;SDS011;59838;52.152;5.436;2023-07-30T08:14:28;12.68;;;2.30;;
71969;SDS011;59838;52.152;5.436;2023-07-30T08:16:55;13.25;;;2.20;;
71969;SDS011;59838;52.152;5.436;2023-07-30T08:19:22;8.40;;;1.65;;
71969;SDS011;59838;52.152;5.436;2023-07-30T08:21:50;11.00;;;2.25;;
71969;SDS011;59838;52.152;5.436;2023-07-30T08:24:18;14.63;;;2.60;;
71969;SDS011;59838;52.152;5.436;2023-07-30T08:26:44;9.60;;;2.17;;
71969;SDS011;59838;52.152;5.436;2023-07-30T08:29:13;10.77;;;2.10;;
71969;SDS011;59838;52.152;5.436;2023-07-30T08:31:42;6.78;;;2.05;;
71969;SDS011;59838;52.152;5.436;2023-07-30T08:34:09;9.23;;;2.10;;
71969;SDS011;59838;52.152;5.436;2023-07-30T08:36:35;8.93;;;1.83;;
71969;SDS011;59838;52.152;5.436;2023-07-30T08:39:02;12.27;;;2.28;;
71969;SDS011;59838;52.152;5.436;2023-07-30T08:45:34;11.35;;;2.42;;
71969;SDS011;59838;52.152;5.436;2023-07-30T08:48:00;15.02;;;2.78;;
71969;SDS011;59838;52.152;5.436;2023-07-30T08:50:27;15.00;;;1.90;;
71969;SDS011;59838;52.152;5.436;2023-07-30T08:52:55;5.60;;;1.15;;
71969;SDS011;59838;52.152;5.436;2023-07-30T08:55:22;6.70;;;1.30;;
71969;SDS011;59838;52.152;5.436;2023-07-30T08:57:49;6.47;;;2.05;;
71969;SDS011;59838;52.152;5.436;2023-07-30T09:00:17;4.78;;;1.02;;
71969;SDS011;59838;52.152;5.436;2023-07-30T09:02:47;6.77;;;0.87;;
71969;SDS011;59838;52.152;5.436;2023-07-30T09:05:16;5.53;;;1.08;;
71969;SDS011;59838;52.152;5.436;2023-07-30T09:07:43;9.38;;;1.45;;
71969;SDS011;59838;52.152;5.436;2023-07-30T09:10:09;9.90;;;1.40;;
71969;SDS011;59838;52.152;5.436;2023-07-30T09:12:36;7.80;;;1.02;;
71969;SDS011;59838;52.152;5.436;2023-07-30T09:15:05;6.17;;;1.53;;
71969;SDS011;59838;52.152;5.436;2023-07-30T09:17:33;9.75;;;1.35;;
71969;SDS011;59838;52.152;5.436;2023-07-30T09:20:00;8.25;;;1.52;;
71969;SDS011;59838;52.152;5.436;2023-07-30T09:22:29;6.32;;;1.60;;
71969;SDS011;59838;52.152;5.436;2023-07-30T09:25:01;11.32;;;1.77;;
71969;SDS011;59838;52.152;5.436;2023-07-30T09:27:29;10.27;;;1.30;;
71969;SDS011;59838;52.152;5.436;2023-07-30T09:29:56;9.55;;;1.17;;
71969;SDS011;59838;52.152;5.436;2023-07-30T09:32:27;7.10;;;1.35;;
71969;SDS011;59838;52.152;5.436;2023-07-30T09:34:56;8.40;;;1.10;;
71969;SDS011;59838;52.152;5.436;2023-07-30T09:37:32;6.93;;;1.42;;
71969;SDS011;59838;52.152;5.436;2023-07-30T09:39:59;11.77;;;1.80;;
71969;SDS011;59838;52.152;5.436;2023-07-30T09:42:29;5.72;;;1.00;;
71969;SDS011;59838;52.152;5.436;2023-07-30T09:44:58;5.25;;;0.98;;
71969;SDS011;59838;52.152;5.436;2023-07-30T09:47:26;7.97;;;1.55;;
71969;SDS011;59838;52.152;5.436;2023-07-30T09:49:53;6.45;;;0.80;;
71969;SDS011;59838;52.152;5.436;2023-07-30T09:52:21;8.53;;;1.53;;
71969;SDS011;59838;52.152;5.436;2023-07-30T09:54:51;6.80;;;1.00;;
71969;SDS011;59838;52.152;5.436;2023-07-30T09:57:18;9.93;;;1.17;;
71969;SDS011;59838;52.152;5.436;2023-07-30T09:59:44;6.07;;;0.93;;
71969;SDS011;59838;52.152;5.436;2023-07-30T10:02:11;4.88;;;0.77;;
71969;SDS011;59838;52.152;5.436;2023-07-30T10:04:39;6.43;;;0.90;;
71969;SDS011;59838;52.152;5.436;2023-07-30T10:07:10;4.78;;;0.70;;
71969;SDS011;59838;52.152;5.436;2023-07-30T10:09:41;4.28;;;1.10;;
71969;SDS011;59838;52.152;5.436;2023-07-30T10:12:14;6.82;;;1.25;;
71969;SDS011;59838;52.152;5.436;2023-07-30T10:14:43;6.25;;;1.10;;
71969;SDS011;59838;52.152;5.436;2023-07-30T10:17:11;7.83;;;1.30;;
71969;SDS011;59838;52.152;5.436;2023-07-30T10:19:40;7.40;;;1.45;;
71969;SDS011;59838;52.152;5.436;2023-07-30T10:24:39;3.88;;;0.80;;
71969;SDS011;59838;52.152;5.436;2023-07-30T10:27:07;3.88;;;0.50;;
71969;SDS011;59838;52.152;5.436;2023-07-30T10:29:36;5.33;;;0.50;;
71969;SDS011;59838;52.152;5.436;2023-07-30T10:32:04;4.18;;;0.70;;
71969;SDS011;59838;52.152;5.436;2023-07-30T10:34:44;5.70;;;0.88;;
71969;SDS011;59838;52.152;5.436;2023-07-30T10:37:20;3.55;;;0.32;;
71969;SDS011;59838;52.152;5.436;2023-07-30T10:39:50;5.70;;;0.60;;
71969;SDS011;59838;52.152;5.436;2023-07-30T10:42:16;4.07;;;0.60;;
71969;SDS011;59838;52.152;5.436;2023-07-30T10:44:44;4.03;;;0.60;;
71969;SDS011;59838;52.152;5.436;2023-07-30T10:47:11;3.85;;;0.60;;
71969;SDS011;59838;52.152;5.436;2023-07-30T10:50:00;5.13;;;0.93;;
71969;SDS011;59838;52.152;5.436;2023-07-30T10:52:28;5.53;;;0.88;;
71969;SDS011;59838;52.152;5.436;2023-07-30T10:55:01;4.73;;;0.90;;
71969;SDS011;59838;52.152;5.436;2023-07-30T10:57:31;4.47;;;0.70;;
71969;SDS011;59838;52.152;5.436;2023-07-30T11:00:02;3.63;;;0.50;;
71969;SDS011;59838;52.152;5.436;2023-07-30T11:02:29;5.05;;;1.08;;
71969;SDS011;59838;52.152;5.436;2023-07-30T11:04:56;3.25;;;0.63;;
71969;SDS011;59838;52.152;5.436;2023-07-30T11:07:23;3.92;;;0.70;;
71969;SDS011;59838;52.152;5.436;2023-07-30T11:09:59;7.72;;;0.60;;
71969;SDS011;59838;52.152;5.436;2023-07-30T11:12:27;3.53;;;0.50;;
71969;SDS011;59838;52.152;5.436;2023-07-30T11:15:01;1.92;;;0.70;;
71969;SDS011;59838;52.152;5.436;2023-07-30T11:17:29;4.75;;;1.00;;
71969;SDS011;59838;52.152;5.436;2023-07-30T11:19:58;4.57;;;0.60;;
71969;SDS011;59838;52.152;5.436;2023-07-30T11:22:29;3.10;;;0.38;;
71969;SDS011;59838;52.152;5.436;2023-07-30T11:24:58;5.22;;;0.70;;
71969;SDS011;59838;52.152;5.436;2023-07-30T11:27:46;4.60;;;1.08;;
71969;SDS011;59838;52.152;5.436;2023-07-30T11:30:14;2.63;;;0.60;;
71969;SDS011;59838;52.152;5.436;2023-07-30T11:32:57;2.13;;;0.40;;
71969;SDS011;59838;52.152;5.436;2023-07-30T11:35:24;5.90;;;0.65;;
71969;SDS011;59838;52.152;5.436;2023-07-30T11:37:51;2.83;;;0.80;;
71969;SDS011;59838;52.152;5.436;2023-07-30T11:40:18;3.60;;;0.47;;
71969;SDS011;59838;52.152;5.436;2023-07-30T11:42:44;2.25;;;0.30;;
71969;SDS011;59838;52.152;5.436;2023-07-30T11:45:21;3.17;;;0.50;;
71969;SDS011;59838;52.152;5.436;2023-07-30T11:47:49;2.03;;;0.50;;
71969;SDS011;59838;52.152;5.436;2023-07-30T11:50:16;2.05;;;0.43;;
71969;SDS011;59838;52.152;5.436;2023-07-30T11:52:55;3.65;;;0.47;;
71969;SDS011;59838;52.152;5.436;2023-07-30T11:55:23;4.07;;;0.80;;
71969;SDS011;59838;52.152;5.436;2023-07-30T11:57:52;2.20;;;0.37;;
71969;SDS011;59838;52.152;5.436;2023-07-30T12:00:22;3.17;;;0.32;;
71969;SDS011;59838;52.152;5.436;2023-07-30T12:02:49;4.35;;;0.70;;
71969;SDS011;59838;52.152;5.436;2023-07-30T12:05:16;6.72;;;0.60;;
71969;SDS011;59838;52.152;5.436;2023-07-30T12:07:46;3.03;;;0.73;;
71969;SDS011;59838;52.152;5.436;2023-07-30T12:10:13;2.60;;;0.50;;
71969;SDS011;59838;52.152;5.436;2023-07-30T12:12:47;3.15;;;0.43;;
71969;SDS011;59838;52.152;5.436;2023-07-30T12:15:18;4.50;;;0.75;;
71969;SDS011;59838;52.152;5.436;2023-07-30T12:17:49;1.83;;;0.43;;
71969;SDS011;59838;52.152;5.436;2023-07-30T12:20:15;4.18;;;0.57;;
71969;SDS011;59838;52.152;5.436;2023-07-30T12:22:42;4.00;;;0.50;;
71969;SDS011;59838;52.152;5.436;2023-07-30T12:25:12;3.63;;;0.70;;
71969;SDS011;59838;52.152;5.436;2023-07-30T12:27:39;2.03;;;0.47;;
71969;SDS011;59838;52.152;5.436;2023-07-30T12:30:06;6.55;;;0.40;;
71969;SDS011;59838;52.152;5.436;2023-07-30T12:32:33;4.57;;;0.70;;
71969;SDS011;59838;52.152;5.436;2023-07-30T12:34:59;3.58;;;0.40;;
71969;SDS011;59838;52.152;5.436;2023-07-30T12:37:26;3.15;;;0.50;;
71969;SDS011;59838;52.152;5.436;2023-07-30T12:39:53;2.35;;;0.30;;
71969;SDS011;59838;52.152;5.436;2023-07-30T12:42:19;2.75;;;0.40;;
71969;SDS011;59838;52.152;5.436;2023-07-30T12:44:46;1.80;;;0.40;;
71969;SDS011;59838;52.152;5.436;2023-07-30T12:47:12;1.90;;;0.40;;
71969;SDS011;59838;52.152;5.436;2023-07-30T12:49:39;3.97;;;0.50;;
71969;SDS011;59838;52.152;5.436;2023-07-30T12:52:05;3.85;;;0.30;;
71969;SDS011;59838;52.152;5.436;2023-07-30T12:54:32;1.77;;;0.35;;
71969;SDS011;59838;52.152;5.436;2023-07-30T12:56:59;1.73;;;0.50;;
71969;SDS011;59838;52.152;5.436;2023-07-30T12:59:25;2.40;;;0.60;;
71969;SDS011;59838;52.152;5.436;2023-07-30T13:01:52;1.05;;;0.30;;
71969;SDS011;59838;52.152;5.436;2023-07-30T13:04:18;3.78;;;0.40;;
71969;SDS011;59838;52.152;5.436;2023-07-30T13:06:46;4.38;;;0.40;;
71969;SDS011;59838;52.152;5.436;2023-07-30T13:09:13;3.80;;;0.60;;
71969;SDS011;59838;52.152;5.436;2023-07-30T13:11:39;4.73;;;0.50;;
71969;SDS011;59838;52.152;5.436;2023-07-30T13:14:06;4.47;;;0.50;;
71969;SDS011;59838;52.152;5.436;2023-07-30T13:16:33;5.13;;;1.10;;
71969;SDS011;59838;52.152;5.436;2023-07-30T13:18:59;2.90;;;0.65;;
71969;SDS011;59838;52.152;5.436;2023-07-30T13:21:26;2.50;;;0.30;;
71969;SDS011;59838;52.152;5.436;2023-07-30T13:23:52;2.67;;;0.37;;
71969;SDS011;59838;52.152;5.436;2023-07-30T13:26:19;1.73;;;0.50;;
71969;SDS011;59838;52.152;5.436;2023-07-30T13:28:46;4.00;;;1.27;;
71969;SDS011;59838;52.152;5.436;2023-07-30T13:31:12;2.45;;;0.40;;
71969;SDS011;59838;52.152;5.436;2023-07-30T13:33:39;1.95;;;0.38;;
71969;SDS011;59838;52.152;5.436;2023-07-30T13:36:05;5.07;;;0.47;;
71969;SDS011;59838;52.152;5.436;2023-07-30T13:38:32;2.28;;;0.32;;
71969;SDS011;59838;52.152;5.436;2023-07-30T13:40:59;1.08;;;0.25;;
71969;SDS011;59838;52.152;5.436;2023-07-30T13:43:25;3.25;;;0.30;;
71969;SDS011;59838;52.152;5.436;2023-07-30T13:45:52;2.45;;;0.40;;
71969;SDS011;59838;52.152;5.436;2023-07-30T13:48:19;4.10;;;0.60;;
71969;SDS011;59838;52.152;5.436;2023-07-30T13:51:00;3.13;;;0.68;;
71969;SDS011;59838;52.152;5.436;2023-07-30T13:53:26;4.35;;;0.50;;
71969;SDS011;59838;52.152;5.436;2023-07-30T13:55:53;3.03;;;0.40;;
71969;SDS011;59838;52.152;5.436;2023-07-30T13:58:20;3.33;;;0.40;;
71969;SDS011;59838;52.152;5.436;2023-07-30T14:00:50;2.13;;;0.40;;
71969;SDS011;59838;52.152;5.436;2023-07-30T14:03:20;3.92;;;0.40;;
71969;SDS011;59838;52.152;5.436;2023-07-30T14:05:49;5.28;;;0.70;;
71969;SDS011;59838;52.152;5.436;2023-07-30T14:08:16;4.47;;;0.43;;
71969;SDS011;59838;52.152;5.436;2023-07-30T14:10:43;2.13;;;0.60;;
71969;SDS011;59838;52.152;5.436;2023-07-30T14:13:15;5.67;;;0.90;;
71969;SDS011;59838;52.152;5.436;2023-07-30T14:15:42;4.65;;;0.68;;
71969;SDS011;59838;52.152;5.436;2023-07-30T14:18:10;3.50;;;0.50;;
71969;SDS011;59838;52.152;5.436;2023-07-30T14:20:37;4.88;;;1.17;;
71969;SDS011;59838;52.152;5.436;2023-07-30T14:23:11;6.40;;;1.33;;
71969;SDS011;59838;52.152;5.436;2023-07-30T14:25:40;3.53;;;0.50;;
71969;SDS011;59838;52.152;5.436;2023-07-30T14:28:11;4.50;;;0.60;;
71969;SDS011;59838;52.152;5.436;2023-07-30T14:30:39;2.65;;;0.50;;
71969;SDS011;59838;52.152;5.436;2023-07-30T14:33:16;2.42;;;0.77;;
71969;SDS011;59838;52.152;5.436;2023-07-30T14:35:43;3.30;;;0.57;;
71969;SDS011;59838;52.152;5.436;2023-07-30T14:38:09;4.90;;;0.50;;
71969;SDS011;59838;52.152;5.436;2023-07-30T14:40:36;4.55;;;0.57;;
71969;SDS011;59838;52.152;5.436;2023-07-30T14:43:02;4.85;;;0.65;;
71969;SDS011;59838;52.152;5.436;2023-07-30T14:45:29;4.50;;;0.90;;
71969;SDS011;59838;52.152;5.436;2023-07-30T14:47:56;2.75;;;0.90;;
71969;SDS011;59838;52.152;5.436;2023-07-30T14:50:23;5.60;;;0.63;;
71969;SDS011;59838;52.152;5.436;2023-07-30T14:52:50;2.38;;;0.70;;